sensor_id;sensor_type;location;lat;lon;timestamp;temperature;humidity
7447;DHT22;3765;47.962;7.952;2023-04-01T00:00:55;8.80;72.10
7447;DHT22;3765;47.962;7.952;2023-04-01T00:03:25;8.80;72.30
7447;DHT22;3765;47.962;7.952;2023-04-01T00:05:54;8.80;72.80
7447;DHT22;3765;47.962;7.952;2023-04-01T00:08:23;8.80;72.90
7447;DHT22;3765;47.962;7.952;2023-04-01T00:10:51;8.80;73.20
7447;DHT22;3765;47.962;7.952;2023-04-01T00:13:20;8.80;73.30
7447;DHT22;3765;47.962;7.952;2023-04-01T00:15:48;8.70;73.60
7447;DHT22;3765;47.962;7.952;2023-04-01T00:18:16;8.60;73.80
7447;DHT22;3765;47.962;7.952;2023-04-01T00:20:47;8.70;74.00
7447;DHT22;3765;47.962;7.952;2023-04-01T00:23:16;8.70;74.00
7447;DHT22;3765;47.962;7.952;2023-04-01T00:25:45;8.70;74.00
7447;DHT22;3765;47.962;7.952;2023-04-01T00:28:15;8.70;74.30
7447;DHT22;3765;47.962;7.952;2023-04-01T00:30:44;8.70;74.30
7447;DHT22;3765;47.962;7.952;2023-04-01T00:33:12;8.70;74.60
7447;DHT22;3765;47.962;7.952;2023-04-01T00:35:40;8.90;74.40
7447;DHT22;3765;47.962;7.952;2023-04-01T00:38:10;8.80;74.90
7447;DHT22;3765;47.962;7.952;2023-04-01T00:40:40;8.70;74.50
7447;DHT22;3765;47.962;7.952;2023-04-01T00:43:11;8.70;74.80
7447;DHT22;3765;47.962;7.952;2023-04-01T00:45:41;8.70;75.00
7447;DHT22;3765;47.962;7.952;2023-04-01T00:48:12;8.70;74.90
7447;DHT22;3765;47.962;7.952;2023-04-01T00:50:44;8.60;74.80
7447;DHT22;3765;47.962;7.952;2023-04-01T00:53:14;8.60;75.20
7447;DHT22;3765;47.962;7.952;2023-04-01T00:55:49;8.60;75.40
7447;DHT22;3765;47.962;7.952;2023-04-01T00:58:21;8.50;75.10
7447;DHT22;3765;47.962;7.952;2023-04-01T01:00:50;8.60;75.30
7447;DHT22;3765;47.962;7.952;2023-04-01T01:03:19;8.60;75.40
7447;DHT22;3765;47.962;7.952;2023-04-01T01:06:05;8.70;75.50
7447;DHT22;3765;47.962;7.952;2023-04-01T01:09:03;8.70;75.20
7447;DHT22;3765;47.962;7.952;2023-04-01T01:11:38;8.80;75.10
7447;DHT22;3765;47.962;7.952;2023-04-01T01:14:21;8.80;75.10
7447;DHT22;3765;47.962;7.952;2023-04-01T01:16:56;8.80;74.80
7447;DHT22;3765;47.962;7.952;2023-04-01T01:19:47;8.90;74.90
7447;DHT22;3765;47.962;7.952;2023-04-01T01:25:29;8.80;75.10
7447;DHT22;3765;47.962;7.952;2023-04-01T01:28:14;8.80;75.30
7447;DHT22;3765;47.962;7.952;2023-04-01T01:30:51;8.80;75.10
7447;DHT22;3765;47.962;7.952;2023-04-01T01:33:35;8.90;75.00
7447;DHT22;3765;47.962;7.952;2023-04-01T01:36:12;8.80;74.90
7447;DHT22;3765;47.962;7.952;2023-04-01T01:38:42;8.80;74.90
7447;DHT22;3765;47.962;7.952;2023-04-01T01:41:12;8.80;74.90
7447;DHT22;3765;47.962;7.952;2023-04-01T01:43:44;8.80;74.90
7447;DHT22;3765;47.962;7.952;2023-04-01T01:46:17;8.80;75.00
7447;DHT22;3765;47.962;7.952;2023-04-01T01:48:47;8.80;74.90
7447;DHT22;3765;47.962;7.952;2023-04-01T01:51:19;8.90;74.90
7447;DHT22;3765;47.962;7.952;2023-04-01T01:53:48;8.90;74.60
7447;DHT22;3765;47.962;7.952;2023-04-01T01:56:18;8.90;74.60
7447;DHT22;3765;47.962;7.952;2023-04-01T01:58:50;9.00;74.30
7447;DHT22;3765;47.962;7.952;2023-04-01T02:01:23;9.00;74.20
7447;DHT22;3765;47.962;7.952;2023-04-01T02:03:53;9.20;74.20
7447;DHT22;3765;47.962;7.952;2023-04-01T02:06:26;9.20;73.80
7447;DHT22;3765;47.962;7.952;2023-04-01T02:08:57;9.30;73.40
7447;DHT22;3765;47.962;7.952;2023-04-01T02:11:30;9.30;73.60
7447;DHT22;3765;47.962;7.952;2023-04-01T02:14:02;9.30;73.20
7447;DHT22;3765;47.962;7.952;2023-04-01T02:16:34;9.30;73.30
7447;DHT22;3765;47.962;7.952;2023-04-01T02:19:04;9.20;73.40
7447;DHT22;3765;47.962;7.952;2023-04-01T02:21:36;9.20;73.20
7447;DHT22;3765;47.962;7.952;2023-04-01T02:24:08;9.20;73.10
7447;DHT22;3765;47.962;7.952;2023-04-01T02:26:38;9.30;73.10
7447;DHT22;3765;47.962;7.952;2023-04-01T02:29:08;9.20;73.10
7447;DHT22;3765;47.962;7.952;2023-04-01T02:31:37;9.00;74.00
7447;DHT22;3765;47.962;7.952;2023-04-01T02:34:05;8.90;73.90
7447;DHT22;3765;47.962;7.952;2023-04-01T02:36:36;8.80;74.40
7447;DHT22;3765;47.962;7.952;2023-04-01T02:39:05;8.80;74.80
7447;DHT22;3765;47.962;7.952;2023-04-01T02:41:38;8.80;75.10
7447;DHT22;3765;47.962;7.952;2023-04-01T02:44:07;8.80;75.00
7447;DHT22;3765;47.962;7.952;2023-04-01T02:46:36;8.70;75.00
7447;DHT22;3765;47.962;7.952;2023-04-01T02:49:05;8.70;75.20
7447;DHT22;3765;47.962;7.952;2023-04-01T02:51:38;8.80;75.50
7447;DHT22;3765;47.962;7.952;2023-04-01T02:54:06;8.80;75.40
7447;DHT22;3765;47.962;7.952;2023-04-01T02:56:34;8.70;75.60
7447;DHT22;3765;47.962;7.952;2023-04-01T02:59:03;8.80;75.60
7447;DHT22;3765;47.962;7.952;2023-04-01T03:01:31;8.70;75.60
7447;DHT22;3765;47.962;7.952;2023-04-01T03:03:59;8.70;75.90
7447;DHT22;3765;47.962;7.952;2023-04-01T03:06:27;8.60;76.00
7447;DHT22;3765;47.962;7.952;2023-04-01T03:08:57;8.60;76.20
7447;DHT22;3765;47.962;7.952;2023-04-01T03:11:25;8.50;76.10
7447;DHT22;3765;47.962;7.952;2023-04-01T03:13:53;8.50;76.20
7447;DHT22;3765;47.962;7.952;2023-04-01T03:16:21;8.50;76.20
7447;DHT22;3765;47.962;7.952;2023-04-01T03:18:50;8.40;76.40
7447;DHT22;3765;47.962;7.952;2023-04-01T03:21:21;8.50;76.40
7447;DHT22;3765;47.962;7.952;2023-04-01T03:23:50;8.50;76.40
7447;DHT22;3765;47.962;7.952;2023-04-01T03:26:19;8.40;76.50
7447;DHT22;3765;47.962;7.952;2023-04-01T03:28:48;8.40;76.30
7447;DHT22;3765;47.962;7.952;2023-04-01T03:31:16;8.40;76.30
7447;DHT22;3765;47.962;7.952;2023-04-01T03:33:46;8.30;76.30
7447;DHT22;3765;47.962;7.952;2023-04-01T03:36:15;8.30;76.30
7447;DHT22;3765;47.962;7.952;2023-04-01T03:38:43;8.30;76.20
7447;DHT22;3765;47.962;7.952;2023-04-01T03:41:13;8.30;76.00
7447;DHT22;3765;47.962;7.952;2023-04-01T03:43:43;8.20;75.90
7447;DHT22;3765;47.962;7.952;2023-04-01T03:46:16;8.20;75.80
7447;DHT22;3765;47.962;7.952;2023-04-01T03:48:44;8.20;75.80
7447;DHT22;3765;47.962;7.952;2023-04-01T03:51:12;8.20;76.10
7447;DHT22;3765;47.962;7.952;2023-04-01T03:53:40;8.20;76.00
7447;DHT22;3765;47.962;7.952;2023-04-01T03:56:09;8.10;76.10
7447;DHT22;3765;47.962;7.952;2023-04-01T03:58:38;8.10;76.00
7447;DHT22;3765;47.962;7.952;2023-04-01T04:01:16;8.10;76.10
7447;DHT22;3765;47.962;7.952;2023-04-01T04:03:44;8.10;76.20
7447;DHT22;3765;47.962;7.952;2023-04-01T04:06:13;8.10;76.30
7447;DHT22;3765;47.962;7.952;2023-04-01T04:08:41;8.00;76.30
7447;DHT22;3765;47.962;7.952;2023-04-01T04:11:10;8.00;76.10
7447;DHT22;3765;47.962;7.952;2023-04-01T04:13:38;8.00;76.20
7447;DHT22;3765;47.962;7.952;2023-04-01T04:16:06;8.10;75.70
7447;DHT22;3765;47.962;7.952;2023-04-01T04:18:36;8.10;75.70
7447;DHT22;3765;47.962;7.952;2023-04-01T04:21:05;8.10;75.40
7447;DHT22;3765;47.962;7.952;2023-04-01T04:23:33;8.10;75.40
7447;DHT22;3765;47.962;7.952;2023-04-01T04:26:04;8.20;75.40
7447;DHT22;3765;47.962;7.952;2023-04-01T04:28:32;8.20;75.20
7447;DHT22;3765;47.962;7.952;2023-04-01T04:31:01;8.20;74.90
7447;DHT22;3765;47.962;7.952;2023-04-01T04:33:31;8.30;74.90
7447;DHT22;3765;47.962;7.952;2023-04-01T04:36:02;8.30;74.90
7447;DHT22;3765;47.962;7.952;2023-04-01T04:38:30;8.40;75.00
7447;DHT22;3765;47.962;7.952;2023-04-01T04:40:58;8.40;74.90
7447;DHT22;3765;47.962;7.952;2023-04-01T04:43:27;8.40;74.80
7447;DHT22;3765;47.962;7.952;2023-04-01T04:45:55;8.30;75.00
7447;DHT22;3765;47.962;7.952;2023-04-01T04:48:23;8.30;75.10
7447;DHT22;3765;47.962;7.952;2023-04-01T04:50:51;8.30;75.00
7447;DHT22;3765;47.962;7.952;2023-04-01T04:53:21;8.30;75.10
7447;DHT22;3765;47.962;7.952;2023-04-01T04:55:50;8.30;75.40
7447;DHT22;3765;47.962;7.952;2023-04-01T04:58:18;8.30;75.40
7447;DHT22;3765;47.962;7.952;2023-04-01T05:00:47;8.30;75.40
7447;DHT22;3765;47.962;7.952;2023-04-01T05:03:15;8.40;75.40
7447;DHT22;3765;47.962;7.952;2023-04-01T05:05:49;8.40;75.30
7447;DHT22;3765;47.962;7.952;2023-04-01T05:08:18;8.40;75.40
7447;DHT22;3765;47.962;7.952;2023-04-01T05:10:47;8.40;75.30
7447;DHT22;3765;47.962;7.952;2023-04-01T05:13:15;8.50;75.30
7447;DHT22;3765;47.962;7.952;2023-04-01T05:15:43;8.50;75.10
7447;DHT22;3765;47.962;7.952;2023-04-01T05:18:12;8.50;75.20
7447;DHT22;3765;47.962;7.952;2023-04-01T05:20:46;8.60;74.90
7447;DHT22;3765;47.962;7.952;2023-04-01T05:23:14;8.60;74.70
7447;DHT22;3765;47.962;7.952;2023-04-01T05:25:43;8.70;74.80
7447;DHT22;3765;47.962;7.952;2023-04-01T05:28:14;8.60;74.60
7447;DHT22;3765;47.962;7.952;2023-04-01T05:30:43;8.70;74.50
7447;DHT22;3765;47.962;7.952;2023-04-01T05:33:12;8.70;74.30
7447;DHT22;3765;47.962;7.952;2023-04-01T05:35:40;8.70;74.40
7447;DHT22;3765;47.962;7.952;2023-04-01T05:38:09;8.80;74.20
7447;DHT22;3765;47.962;7.952;2023-04-01T05:40:37;8.80;74.10
7447;DHT22;3765;47.962;7.952;2023-04-01T05:43:05;8.80;74.00
7447;DHT22;3765;47.962;7.952;2023-04-01T05:45:35;8.80;74.10
7447;DHT22;3765;47.962;7.952;2023-04-01T05:48:04;8.80;74.00
7447;DHT22;3765;47.962;7.952;2023-04-01T05:50:32;8.80;74.10
7447;DHT22;3765;47.962;7.952;2023-04-01T05:53:00;8.80;74.10
7447;DHT22;3765;47.962;7.952;2023-04-01T05:55:28;8.90;74.10
7447;DHT22;3765;47.962;7.952;2023-04-01T05:57:57;8.90;73.90
7447;DHT22;3765;47.962;7.952;2023-04-01T06:00:25;8.90;73.80
7447;DHT22;3765;47.962;7.952;2023-04-01T06:02:55;8.90;73.80
7447;DHT22;3765;47.962;7.952;2023-04-01T06:05:28;9.00;73.70
7447;DHT22;3765;47.962;7.952;2023-04-01T06:08:00;9.00;73.70
7447;DHT22;3765;47.962;7.952;2023-04-01T06:10:39;9.00;73.40
7447;DHT22;3765;47.962;7.952;2023-04-01T06:13:14;9.10;73.60
7447;DHT22;3765;47.962;7.952;2023-04-01T06:15:51;9.10;73.30
7447;DHT22;3765;47.962;7.952;2023-04-01T06:18:46;9.10;73.10
7447;DHT22;3765;47.962;7.952;2023-04-01T06:21:48;9.10;72.90
7447;DHT22;3765;47.962;7.952;2023-04-01T06:24:37;9.10;72.80
7447;DHT22;3765;47.962;7.952;2023-04-01T06:27:16;9.20;72.70
7447;DHT22;3765;47.962;7.952;2023-04-01T06:29:55;9.20;72.70
7447;DHT22;3765;47.962;7.952;2023-04-01T06:32:52;9.20;72.60
7447;DHT22;3765;47.962;7.952;2023-04-01T06:35:40;9.30;72.60
7447;DHT22;3765;47.962;7.952;2023-04-01T06:38:18;9.20;72.40
7447;DHT22;3765;47.962;7.952;2023-04-01T06:44:01;9.30;72.00
7447;DHT22;3765;47.962;7.952;2023-04-01T06:46:39;9.30;72.20
7447;DHT22;3765;47.962;7.952;2023-04-01T06:49:39;9.30;71.90
7447;DHT22;3765;47.962;7.952;2023-04-01T06:52:18;9.30;71.50
7447;DHT22;3765;47.962;7.952;2023-04-01T06:54:50;9.30;71.40
7447;DHT22;3765;47.962;7.952;2023-04-01T06:57:23;9.30;71.30
7447;DHT22;3765;47.962;7.952;2023-04-01T06:59:57;9.40;71.10
7447;DHT22;3765;47.962;7.952;2023-04-01T07:02:32;9.50;71.00
7447;DHT22;3765;47.962;7.952;2023-04-01T07:05:02;9.50;71.20
7447;DHT22;3765;47.962;7.952;2023-04-01T07:07:38;9.60;71.20
7447;DHT22;3765;47.962;7.952;2023-04-01T07:10:14;9.70;70.60
7447;DHT22;3765;47.962;7.952;2023-04-01T07:12:47;9.70;70.80
7447;DHT22;3765;47.962;7.952;2023-04-01T07:15:20;9.80;70.80
7447;DHT22;3765;47.962;7.952;2023-04-01T07:17:53;9.80;70.40
7447;DHT22;3765;47.962;7.952;2023-04-01T07:20:25;9.80;70.60
7447;DHT22;3765;47.962;7.952;2023-04-01T07:22:58;9.80;70.40
7447;DHT22;3765;47.962;7.952;2023-04-01T07:25:30;9.80;70.30
7447;DHT22;3765;47.962;7.952;2023-04-01T07:28:02;9.90;70.00
7447;DHT22;3765;47.962;7.952;2023-04-01T07:30:43;10.00;70.10
7447;DHT22;3765;47.962;7.952;2023-04-01T07:33:15;10.10;70.30
7447;DHT22;3765;47.962;7.952;2023-04-01T07:35:50;10.10;69.50
7447;DHT22;3765;47.962;7.952;2023-04-01T07:38:26;10.00;68.90
7447;DHT22;3765;47.962;7.952;2023-04-01T07:41:06;10.10;69.50
7447;DHT22;3765;47.962;7.952;2023-04-01T07:43:51;10.00;69.30
7447;DHT22;3765;47.962;7.952;2023-04-01T07:46:33;10.20;69.20
7447;DHT22;3765;47.962;7.952;2023-04-01T07:49:10;10.30;69.10
7447;DHT22;3765;47.962;7.952;2023-04-01T07:51:44;10.20;69.00
7447;DHT22;3765;47.962;7.952;2023-04-01T07:54:21;10.20;69.00
7447;DHT22;3765;47.962;7.952;2023-04-01T07:56:56;10.30;68.70
7447;DHT22;3765;47.962;7.952;2023-04-01T07:59:29;10.20;69.20
7447;DHT22;3765;47.962;7.952;2023-04-01T08:02:08;10.20;69.50
7447;DHT22;3765;47.962;7.952;2023-04-01T08:04:51;10.00;69.90
7447;DHT22;3765;47.962;7.952;2023-04-01T08:07:25;10.10;70.10
7447;DHT22;3765;47.962;7.952;2023-04-01T08:09:59;9.90;69.90
7447;DHT22;3765;47.962;7.952;2023-04-01T08:12:37;9.90;70.20
7447;DHT22;3765;47.962;7.952;2023-04-01T08:15:13;9.90;70.40
7447;DHT22;3765;47.962;7.952;2023-04-01T08:17:50;9.90;70.40
7447;DHT22;3765;47.962;7.952;2023-04-01T08:20:28;9.90;70.20
7447;DHT22;3765;47.962;7.952;2023-04-01T08:23:00;9.90;69.80
7447;DHT22;3765;47.962;7.952;2023-04-01T08:25:32;9.80;69.90
7447;DHT22;3765;47.962;7.952;2023-04-01T08:28:10;9.90;69.90
7447;DHT22;3765;47.962;7.952;2023-04-01T08:30:44;9.90;69.80
7447;DHT22;3765;47.962;7.952;2023-04-01T08:33:17;9.80;69.70
7447;DHT22;3765;47.962;7.952;2023-04-01T08:35:52;9.80;70.10
7447;DHT22;3765;47.962;7.952;2023-04-01T08:38:26;9.70;70.10
7447;DHT22;3765;47.962;7.952;2023-04-01T08:41:13;9.60;70.30
7447;DHT22;3765;47.962;7.952;2023-04-01T08:44:30;9.60;70.60
7447;DHT22;3765;47.962;7.952;2023-04-01T08:50:23;9.70;70.60
7447;DHT22;3765;47.962;7.952;2023-04-01T08:53:11;9.70;70.60
7447;DHT22;3765;47.962;7.952;2023-04-01T08:55:51;9.80;70.50
7447;DHT22;3765;47.962;7.952;2023-04-01T09:01:29;9.90;70.50
7447;DHT22;3765;47.962;7.952;2023-04-01T09:04:18;10.00;70.40
7447;DHT22;3765;47.962;7.952;2023-04-01T09:07:02;10.10;70.20
7447;DHT22;3765;47.962;7.952;2023-04-01T09:13:04;10.20;69.70
7447;DHT22;3765;47.962;7.952;2023-04-01T09:15:50;10.30;69.50
7447;DHT22;3765;47.962;7.952;2023-04-01T09:21:43;10.30;69.70
7447;DHT22;3765;47.962;7.952;2023-04-01T09:24:30;10.50;69.20
7447;DHT22;3765;47.962;7.952;2023-04-01T09:27:04;10.40;69.30
7447;DHT22;3765;47.962;7.952;2023-04-01T09:32:59;10.40;69.10
7447;DHT22;3765;47.962;7.952;2023-04-01T09:35:39;10.40;69.20
7447;DHT22;3765;47.962;7.952;2023-04-01T09:38:20;10.40;69.00
7447;DHT22;3765;47.962;7.952;2023-04-01T09:40:55;10.40;68.90
7447;DHT22;3765;47.962;7.952;2023-04-01T09:43:39;10.30;69.10
7447;DHT22;3765;47.962;7.952;2023-04-01T09:46:18;10.30;69.30
7447;DHT22;3765;47.962;7.952;2023-04-01T09:52:18;10.20;69.90
7447;DHT22;3765;47.962;7.952;2023-04-01T09:55:04;10.30;70.30
7447;DHT22;3765;47.962;7.952;2023-04-01T09:57:56;10.20;70.40
7447;DHT22;3765;47.962;7.952;2023-04-01T10:01:03;10.10;70.20
7447;DHT22;3765;47.962;7.952;2023-04-01T10:04:06;10.10;70.30
7447;DHT22;3765;47.962;7.952;2023-04-01T10:10:26;10.30;69.80
7447;DHT22;3765;47.962;7.952;2023-04-01T10:13:28;10.20;69.60
7447;DHT22;3765;47.962;7.952;2023-04-01T10:16:31;10.30;69.40
7447;DHT22;3765;47.962;7.952;2023-04-01T10:22:37;10.30;68.90
7447;DHT22;3765;47.962;7.952;2023-04-01T10:25:57;10.30;68.20
7447;DHT22;3765;47.962;7.952;2023-04-01T10:28:47;10.30;68.10
7447;DHT22;3765;47.962;7.952;2023-04-01T10:47:26;10.20;69.70
7447;DHT22;3765;47.962;7.952;2023-04-01T10:50:16;10.20;70.30
7447;DHT22;3765;47.962;7.952;2023-04-01T10:53:21;10.10;70.40
7447;DHT22;3765;47.962;7.952;2023-04-01T10:56:08;9.80;70.70
7447;DHT22;3765;47.962;7.952;2023-04-01T10:59:15;9.80;71.10
7447;DHT22;3765;47.962;7.952;2023-04-01T11:08:36;9.80;71.20
7447;DHT22;3765;47.962;7.952;2023-04-01T11:11:39;9.80;71.30
7447;DHT22;3765;47.962;7.952;2023-04-01T11:17:41;9.70;71.60
7447;DHT22;3765;47.962;7.952;2023-04-01T11:23:31;9.80;71.80
7447;DHT22;3765;47.962;7.952;2023-04-01T11:26:19;9.80;71.80
7447;DHT22;3765;47.962;7.952;2023-04-01T11:29:08;9.80;71.70
7447;DHT22;3765;47.962;7.952;2023-04-01T11:31:58;9.80;72.10
7447;DHT22;3765;47.962;7.952;2023-04-01T11:34:50;9.80;71.80
7447;DHT22;3765;47.962;7.952;2023-04-01T11:37:31;9.70;71.60
7447;DHT22;3765;47.962;7.952;2023-04-01T11:40:08;9.40;72.20
7447;DHT22;3765;47.962;7.952;2023-04-01T11:42:46;9.30;73.30
7447;DHT22;3765;47.962;7.952;2023-04-01T11:45:28;9.30;73.20
7447;DHT22;3765;47.962;7.952;2023-04-01T11:48:19;9.20;73.40
7447;DHT22;3765;47.962;7.952;2023-04-01T11:51:21;9.20;73.70
7447;DHT22;3765;47.962;7.952;2023-04-01T11:53:58;9.20;74.10
7447;DHT22;3765;47.962;7.952;2023-04-01T11:56:44;9.20;74.20
7447;DHT22;3765;47.962;7.952;2023-04-01T11:59:37;9.10;74.10
7447;DHT22;3765;47.962;7.952;2023-04-01T12:02:11;9.20;73.90
7447;DHT22;3765;47.962;7.952;2023-04-01T12:05:15;9.20;73.90
7447;DHT22;3765;47.962;7.952;2023-04-01T12:07:57;9.30;74.00
7447;DHT22;3765;47.962;7.952;2023-04-01T12:10:32;9.40;73.50
7447;DHT22;3765;47.962;7.952;2023-04-01T12:13:05;9.60;73.30
7447;DHT22;3765;47.962;7.952;2023-04-01T12:15:50;9.70;72.60
7447;DHT22;3765;47.962;7.952;2023-04-01T12:18:24;9.70;72.90
7447;DHT22;3765;47.962;7.952;2023-04-01T12:20:59;9.80;72.50
7447;DHT22;3765;47.962;7.952;2023-04-01T12:27:13;10.20;71.70
7447;DHT22;3765;47.962;7.952;2023-04-01T12:33:28;10.20;71.00
7447;DHT22;3765;47.962;7.952;2023-04-01T12:36:07;10.30;71.10
7447;DHT22;3765;47.962;7.952;2023-04-01T12:38:46;10.30;70.90
7447;DHT22;3765;47.962;7.952;2023-04-01T12:41:23;10.30;70.10
7447;DHT22;3765;47.962;7.952;2023-04-01T12:47:24;10.50;70.30
7447;DHT22;3765;47.962;7.952;2023-04-01T12:50:33;10.50;70.30
7447;DHT22;3765;47.962;7.952;2023-04-01T12:53:22;10.70;69.90
7447;DHT22;3765;47.962;7.952;2023-04-01T12:56:02;10.70;70.10
7447;DHT22;3765;47.962;7.952;2023-04-01T12:59:01;10.70;69.80
7447;DHT22;3765;47.962;7.952;2023-04-01T13:02:00;10.80;70.00
7447;DHT22;3765;47.962;7.952;2023-04-01T13:04:49;10.70;70.00
7447;DHT22;3765;47.962;7.952;2023-04-01T13:07:41;10.70;70.50
7447;DHT22;3765;47.962;7.952;2023-04-01T13:10:20;10.70;70.50
7447;DHT22;3765;47.962;7.952;2023-04-01T13:16:02;10.70;69.80
7447;DHT22;3765;47.962;7.952;2023-04-01T13:18:39;10.70;69.30
7447;DHT22;3765;47.962;7.952;2023-04-01T13:21:16;10.90;69.50
7447;DHT22;3765;47.962;7.952;2023-04-01T13:23:56;10.90;69.10
7447;DHT22;3765;47.962;7.952;2023-04-01T13:26:36;11.10;69.20
7447;DHT22;3765;47.962;7.952;2023-04-01T13:29:09;11.20;69.20
7447;DHT22;3765;47.962;7.952;2023-04-01T13:31:49;11.00;68.50
7447;DHT22;3765;47.962;7.952;2023-04-01T13:34:32;11.20;68.00
7447;DHT22;3765;47.962;7.952;2023-04-01T13:37:25;11.20;68.40
7447;DHT22;3765;47.962;7.952;2023-04-01T13:40:16;11.30;68.50
7447;DHT22;3765;47.962;7.952;2023-04-01T13:42:50;11.30;67.30
7447;DHT22;3765;47.962;7.952;2023-04-01T13:45:23;11.30;67.50
7447;DHT22;3765;47.962;7.952;2023-04-01T13:51:18;11.70;67.40
7447;DHT22;3765;47.962;7.952;2023-04-01T13:54:23;11.80;67.00
7447;DHT22;3765;47.962;7.952;2023-04-01T13:57:11;12.10;67.00
7447;DHT22;3765;47.962;7.952;2023-04-01T14:00:00;12.40;66.60
7447;DHT22;3765;47.962;7.952;2023-04-01T14:03:03;12.50;66.10
7447;DHT22;3765;47.962;7.952;2023-04-01T14:05:51;12.70;66.00
7447;DHT22;3765;47.962;7.952;2023-04-01T14:08:33;12.80;64.30
7447;DHT22;3765;47.962;7.952;2023-04-01T14:11:13;13.10;64.70
7447;DHT22;3765;47.962;7.952;2023-04-01T14:13:53;13.10;64.70
7447;DHT22;3765;47.962;7.952;2023-04-01T14:16:55;13.10;64.40
7447;DHT22;3765;47.962;7.952;2023-04-01T14:19:39;13.30;64.30
7447;DHT22;3765;47.962;7.952;2023-04-01T14:22:16;13.70;63.90
7447;DHT22;3765;47.962;7.952;2023-04-01T14:25:05;13.60;63.30
7447;DHT22;3765;47.962;7.952;2023-04-01T14:27:44;13.60;63.50
7447;DHT22;3765;47.962;7.952;2023-04-01T14:30:37;13.50;63.50
7447;DHT22;3765;47.962;7.952;2023-04-01T14:33:22;13.40;63.20
7447;DHT22;3765;47.962;7.952;2023-04-01T14:36:08;13.30;62.40
7447;DHT22;3765;47.962;7.952;2023-04-01T14:38:51;12.90;62.90
7447;DHT22;3765;47.962;7.952;2023-04-01T14:41:31;12.60;63.50
7447;DHT22;3765;47.962;7.952;2023-04-01T14:44:18;12.00;64.80
7447;DHT22;3765;47.962;7.952;2023-04-01T14:47:18;11.50;66.90
7447;DHT22;3765;47.962;7.952;2023-04-01T14:49:52;10.80;68.50
7447;DHT22;3765;47.962;7.952;2023-04-01T14:52:25;10.90;69.70
7447;DHT22;3765;47.962;7.952;2023-04-01T14:54:56;11.30;69.70
7447;DHT22;3765;47.962;7.952;2023-04-01T14:57:28;11.60;69.60
7447;DHT22;3765;47.962;7.952;2023-04-01T15:00:01;12.10;69.60
7447;DHT22;3765;47.962;7.952;2023-04-01T15:02:53;12.60;69.20
7447;DHT22;3765;47.962;7.952;2023-04-01T15:05:32;13.00;68.50
7447;DHT22;3765;47.962;7.952;2023-04-01T15:08:14;13.40;67.30
7447;DHT22;3765;47.962;7.952;2023-04-01T15:14:09;14.30;66.70
7447;DHT22;3765;47.962;7.952;2023-04-01T15:16:46;14.50;65.60
7447;DHT22;3765;47.962;7.952;2023-04-01T15:19:26;14.60;65.10
7447;DHT22;3765;47.962;7.952;2023-04-01T15:25:13;14.70;63.70
7447;DHT22;3765;47.962;7.952;2023-04-01T15:27:49;14.80;64.60
7447;DHT22;3765;47.962;7.952;2023-04-01T15:30:28;14.40;62.80
7447;DHT22;3765;47.962;7.952;2023-04-01T15:33:10;14.40;62.40
7447;DHT22;3765;47.962;7.952;2023-04-01T15:35:48;14.00;61.40
7447;DHT22;3765;47.962;7.952;2023-04-01T15:38:29;14.40;61.40
7447;DHT22;3765;47.962;7.952;2023-04-01T15:41:05;14.00;61.70
7447;DHT22;3765;47.962;7.952;2023-04-01T15:43:41;13.40;61.50
7447;DHT22;3765;47.962;7.952;2023-04-01T15:49:08;12.90;62.80
7447;DHT22;3765;47.962;7.952;2023-04-01T15:51:47;12.60;62.40
7447;DHT22;3765;47.962;7.952;2023-04-01T15:54:55;12.50;63.20
7447;DHT22;3765;47.962;7.952;2023-04-01T15:57:34;12.00;62.80
7447;DHT22;3765;47.962;7.952;2023-04-01T16:00:23;11.90;63.40
7447;DHT22;3765;47.962;7.952;2023-04-01T16:03:09;11.90;63.50
7447;DHT22;3765;47.962;7.952;2023-04-01T16:05:55;11.80;63.80
7447;DHT22;3765;47.962;7.952;2023-04-01T16:09:00;11.70;63.50
7447;DHT22;3765;47.962;7.952;2023-04-01T16:11:38;11.70;63.50
7447;DHT22;3765;47.962;7.952;2023-04-01T16:14:26;11.70;64.10
7447;DHT22;3765;47.962;7.952;2023-04-01T16:17:12;12.20;64.40
7447;DHT22;3765;47.962;7.952;2023-04-01T16:19:51;12.10;63.70
7447;DHT22;3765;47.962;7.952;2023-04-01T16:22:23;12.30;63.90
7447;DHT22;3765;47.962;7.952;2023-04-01T16:25:07;12.50;63.80
7447;DHT22;3765;47.962;7.952;2023-04-01T16:27:46;12.90;63.00
7447;DHT22;3765;47.962;7.952;2023-04-01T16:30:33;12.70;62.80
7447;DHT22;3765;47.962;7.952;2023-04-01T16:33:04;12.40;63.00
7447;DHT22;3765;47.962;7.952;2023-04-01T16:35:43;12.30;63.50
7447;DHT22;3765;47.962;7.952;2023-04-01T16:38:18;12.30;63.50
7447;DHT22;3765;47.962;7.952;2023-04-01T16:40:58;12.10;63.70
7447;DHT22;3765;47.962;7.952;2023-04-01T16:43:35;11.90;64.50
7447;DHT22;3765;47.962;7.952;2023-04-01T16:49:25;11.80;64.60
7447;DHT22;3765;47.962;7.952;2023-04-01T16:52:04;11.90;64.40
7447;DHT22;3765;47.962;7.952;2023-04-01T16:54:44;11.80;64.80
7447;DHT22;3765;47.962;7.952;2023-04-01T16:57:21;11.80;64.60
7447;DHT22;3765;47.962;7.952;2023-04-01T16:59:57;11.70;64.80
7447;DHT22;3765;47.962;7.952;2023-04-01T17:02:31;11.70;64.50
7447;DHT22;3765;47.962;7.952;2023-04-01T17:05:05;11.50;64.80
7447;DHT22;3765;47.962;7.952;2023-04-01T17:07:44;11.60;65.10
7447;DHT22;3765;47.962;7.952;2023-04-01T17:10:25;11.80;65.00
7447;DHT22;3765;47.962;7.952;2023-04-01T17:19:01;11.50;65.10
7447;DHT22;3765;47.962;7.952;2023-04-01T17:21:46;11.60;65.40
7447;DHT22;3765;47.962;7.952;2023-04-01T17:24:30;11.60;65.70
7447;DHT22;3765;47.962;7.952;2023-04-01T17:27:06;11.60;65.40
7447;DHT22;3765;47.962;7.952;2023-04-01T17:29:57;11.70;65.50
7447;DHT22;3765;47.962;7.952;2023-04-01T17:32:38;11.70;65.50
7447;DHT22;3765;47.962;7.952;2023-04-01T17:35:12;11.50;65.50
7447;DHT22;3765;47.962;7.952;2023-04-01T17:37:53;11.50;66.10
7447;DHT22;3765;47.962;7.952;2023-04-01T17:40:32;11.60;65.90
7447;DHT22;3765;47.962;7.952;2023-04-01T17:43:10;11.40;66.00
7447;DHT22;3765;47.962;7.952;2023-04-01T17:45:48;11.30;65.90
7447;DHT22;3765;47.962;7.952;2023-04-01T17:48:24;11.10;65.90
7447;DHT22;3765;47.962;7.952;2023-04-01T17:51:21;11.10;65.70
7447;DHT22;3765;47.962;7.952;2023-04-01T17:54:00;11.10;65.60
7447;DHT22;3765;47.962;7.952;2023-04-01T17:56:42;11.00;65.60
7447;DHT22;3765;47.962;7.952;2023-04-01T17:59:20;10.80;65.60
7447;DHT22;3765;47.962;7.952;2023-04-01T18:01:57;10.90;65.40
7447;DHT22;3765;47.962;7.952;2023-04-01T18:04:57;10.80;65.20
7447;DHT22;3765;47.962;7.952;2023-04-01T18:07:51;10.80;65.70
7447;DHT22;3765;47.962;7.952;2023-04-01T18:10:31;10.60;65.40
7447;DHT22;3765;47.962;7.952;2023-04-01T18:13:15;10.50;65.20
7447;DHT22;3765;47.962;7.952;2023-04-01T18:15:56;10.60;65.40
7447;DHT22;3765;47.962;7.952;2023-04-01T18:18:39;10.60;65.10
7447;DHT22;3765;47.962;7.952;2023-04-01T18:21:15;10.50;65.20
7447;DHT22;3765;47.962;7.952;2023-04-01T18:23:51;10.40;65.00
7447;DHT22;3765;47.962;7.952;2023-04-01T18:26:30;10.30;65.20
7447;DHT22;3765;47.962;7.952;2023-04-01T18:29:04;10.30;65.10
7447;DHT22;3765;47.962;7.952;2023-04-01T18:31:43;10.30;65.20
7447;DHT22;3765;47.962;7.952;2023-04-01T18:34:17;10.30;65.10
7447;DHT22;3765;47.962;7.952;2023-04-01T18:36:50;10.10;65.20
7447;DHT22;3765;47.962;7.952;2023-04-01T18:39:23;10.10;65.40
7447;DHT22;3765;47.962;7.952;2023-04-01T18:42:05;10.10;65.60
7447;DHT22;3765;47.962;7.952;2023-04-01T18:44:42;10.00;65.40
7447;DHT22;3765;47.962;7.952;2023-04-01T18:47:21;10.00;65.50
7447;DHT22;3765;47.962;7.952;2023-04-01T18:49:59;10.20;65.70
7447;DHT22;3765;47.962;7.952;2023-04-01T18:52:34;10.20;65.60
7447;DHT22;3765;47.962;7.952;2023-04-01T18:55:23;10.20;65.40